sensor_id;sensor_type;location;lat;lon;timestamp;P1;durP1;ratioP1;P2;durP2;ratioP2
54177;SDS011;40085;53.004;6.770;2023-11-18T00:02:23;5.97;;;5.45;;
54177;SDS011;40085;53.004;6.770;2023-11-18T00:04:50;5.78;;;5.28;;
54177;SDS011;40085;53.004;6.770;2023-11-18T00:07:16;6.50;;;5.22;;
54177;SDS011;40085;53.004;6.770;2023-11-18T00:09:42;5.68;;;5.18;;
54177;SDS011;40085;53.004;6.770;2023-11-18T00:12:11;5.68;;;5.18;;
54177;SDS011;40085;53.004;6.770;2023-11-18T00:14:37;5.93;;;5.43;;
54177;SDS011;40085;53.004;6.770;2023-11-18T00:17:03;6.13;;;5.53;;
54177;SDS011;40085;53.004;6.770;2023-11-18T00:19:29;6.03;;;5.43;;
54177;SDS011;40085;53.004;6.770;2023-11-18T00:21:55;5.50;;;5.00;;
54177;SDS011;40085;53.004;6.770;2023-11-18T00:24:21;5.80;;;5.30;;
54177;SDS011;40085;53.004;6.770;2023-11-18T00:26:46;5.95;;;5.35;;
54177;SDS011;40085;53.004;6.770;2023-11-18T00:29:12;6.18;;;4.72;;
54177;SDS011;40085;53.004;6.770;2023-11-18T00:31:38;5.90;;;5.30;;
54177;SDS011;40085;53.004;6.770;2023-11-18T00:34:03;5.22;;;4.72;;
54177;SDS011;40085;53.004;6.770;2023-11-18T00:36:29;5.32;;;4.82;;
54177;SDS011;40085;53.004;6.770;2023-11-18T00:38:55;5.57;;;5.00;;
54177;SDS011;40085;53.004;6.770;2023-11-18T00:41:20;4.63;;;4.22;;
54177;SDS011;40085;53.004;6.770;2023-11-18T00:43:46;4.90;;;4.40;;
54177;SDS011;40085;53.004;6.770;2023-11-18T00:46:12;4.80;;;4.28;;
54177;SDS011;40085;53.004;6.770;2023-11-18T00:48:38;9.73;;;4.72;;
54177;SDS011;40085;53.004;6.770;2023-11-18T00:51:04;4.47;;;4.07;;
54177;SDS011;40085;53.004;6.770;2023-11-18T00:53:31;5.07;;;4.57;;
54177;SDS011;40085;53.004;6.770;2023-11-18T00:55:56;4.22;;;3.83;;
54177;SDS011;40085;53.004;6.770;2023-11-18T00:58:22;4.68;;;4.28;;
54177;SDS011;40085;53.004;6.770;2023-11-18T01:00:48;4.50;;;4.10;;
54177;SDS011;40085;53.004;6.770;2023-11-18T01:03:13;4.43;;;4.03;;
54177;SDS011;40085;53.004;6.770;2023-11-18T01:05:39;4.63;;;3.83;;
54177;SDS011;40085;53.004;6.770;2023-11-18T01:08:04;4.30;;;3.90;;
54177;SDS011;40085;53.004;6.770;2023-11-18T01:10:30;4.95;;;4.55;;
54177;SDS011;40085;53.004;6.770;2023-11-18T01:12:56;5.97;;;4.53;;
54177;SDS011;40085;53.004;6.770;2023-11-18T01:15:23;4.75;;;4.35;;
54177;SDS011;40085;53.004;6.770;2023-11-18T01:17:49;4.43;;;4.03;;
54177;SDS011;40085;53.004;6.770;2023-11-18T01:20:15;5.22;;;4.65;;
54177;SDS011;40085;53.004;6.770;2023-11-18T01:22:47;4.38;;;3.97;;
54177;SDS011;40085;53.004;6.770;2023-11-18T01:25:14;4.22;;;3.83;;
54177;SDS011;40085;53.004;6.770;2023-11-18T01:27:42;4.07;;;3.72;;
54177;SDS011;40085;53.004;6.770;2023-11-18T01:30:12;4.97;;;4.18;;
54177;SDS011;40085;53.004;6.770;2023-11-18T01:32:38;4.65;;;3.53;;
54177;SDS011;40085;53.004;6.770;2023-11-18T01:35:08;4.05;;;3.65;;
54177;SDS011;40085;53.004;6.770;2023-11-18T01:37:37;4.28;;;3.88;;
54177;SDS011;40085;53.004;6.770;2023-11-18T01:40:03;4.10;;;3.80;;
54177;SDS011;40085;53.004;6.770;2023-11-18T01:42:33;4.55;;;4.15;;
54177;SDS011;40085;53.004;6.770;2023-11-18T01:44:59;4.38;;;3.97;;
54177;SDS011;40085;53.004;6.770;2023-11-18T01:47:28;4.50;;;4.10;;
54177;SDS011;40085;53.004;6.770;2023-11-18T01:49:57;4.40;;;4.00;;
54177;SDS011;40085;53.004;6.770;2023-11-18T01:52:24;4.10;;;3.80;;
54177;SDS011;40085;53.004;6.770;2023-11-18T01:54:51;4.13;;;3.72;;
54177;SDS011;40085;53.004;6.770;2023-11-18T01:57:20;4.95;;;4.55;;
54177;SDS011;40085;53.004;6.770;2023-11-18T01:59:46;4.57;;;4.18;;
54177;SDS011;40085;53.004;6.770;2023-11-18T02:02:12;4.18;;;3.78;;
54177;SDS011;40085;53.004;6.770;2023-11-18T02:04:39;4.18;;;3.78;;
54177;SDS011;40085;53.004;6.770;2023-11-18T02:07:05;5.40;;;4.90;;
54177;SDS011;40085;53.004;6.770;2023-11-18T02:09:34;4.75;;;4.25;;
54177;SDS011;40085;53.004;6.770;2023-11-18T02:12:08;8.48;;;5.60;;
54177;SDS011;40085;53.004;6.770;2023-11-18T02:14:35;5.07;;;4.57;;
54177;SDS011;40085;53.004;6.770;2023-11-18T02:17:03;4.43;;;4.03;;
54177;SDS011;40085;53.004;6.770;2023-11-18T02:19:31;5.35;;;4.85;;
54177;SDS011;40085;53.004;6.770;2023-11-18T02:21:57;5.30;;;4.80;;
54177;SDS011;40085;53.004;6.770;2023-11-18T02:24:24;5.47;;;4.97;;
54177;SDS011;40085;53.004;6.770;2023-11-18T02:26:50;5.40;;;4.90;;
54177;SDS011;40085;53.004;6.770;2023-11-18T02:29:16;5.38;;;4.88;;
54177;SDS011;40085;53.004;6.770;2023-11-18T02:31:42;5.18;;;4.68;;
54177;SDS011;40085;53.004;6.770;2023-11-18T02:34:13;6.28;;;5.35;;
54177;SDS011;40085;53.004;6.770;2023-11-18T02:36:44;6.70;;;5.47;;
54177;SDS011;40085;53.004;6.770;2023-11-18T02:39:12;6.60;;;5.30;;
54177;SDS011;40085;53.004;6.770;2023-11-18T02:41:44;22.90;;;7.38;;
54177;SDS011;40085;53.004;6.770;2023-11-18T02:44:12;15.13;;;6.13;;
54177;SDS011;40085;53.004;6.770;2023-11-18T02:46:42;11.48;;;6.03;;
54177;SDS011;40085;53.004;6.770;2023-11-18T02:49:09;8.05;;;6.30;;
54177;SDS011;40085;53.004;6.770;2023-11-18T02:51:35;14.80;;;6.80;;
54177;SDS011;40085;53.004;6.770;2023-11-18T02:54:05;7.43;;;5.95;;
54177;SDS011;40085;53.004;6.770;2023-11-18T02:56:37;10.23;;;6.20;;
54177;SDS011;40085;53.004;6.770;2023-11-18T02:59:03;9.55;;;6.07;;
54177;SDS011;40085;53.004;6.770;2023-11-18T03:01:32;21.75;;;7.72;;
54177;SDS011;40085;53.004;6.770;2023-11-18T03:04:04;9.65;;;6.35;;
54177;SDS011;40085;53.004;6.770;2023-11-18T03:06:30;11.32;;;6.65;;
54177;SDS011;40085;53.004;6.770;2023-11-18T03:09:00;28.38;;;7.18;;
54177;SDS011;40085;53.004;6.770;2023-11-18T03:11:28;8.65;;;7.03;;
54177;SDS011;40085;53.004;6.770;2023-11-18T03:13:56;6.53;;;5.93;;
54177;SDS011;40085;53.004;6.770;2023-11-18T03:16:23;6.53;;;5.82;;
54177;SDS011;40085;53.004;6.770;2023-11-18T03:18:49;6.75;;;5.97;;
54177;SDS011;40085;53.004;6.770;2023-11-18T03:21:16;16.10;;;6.40;;
54177;SDS011;40085;53.004;6.770;2023-11-18T03:23:44;12.23;;;6.65;;
54177;SDS011;40085;53.004;6.770;2023-11-18T03:26:10;20.63;;;7.55;;
54177;SDS011;40085;53.004;6.770;2023-11-18T03:28:36;15.77;;;7.38;;
54177;SDS011;40085;53.004;6.770;2023-11-18T03:31:06;11.38;;;7.75;;
54177;SDS011;40085;53.004;6.770;2023-11-18T03:33:32;17.27;;;9.63;;
54177;SDS011;40085;53.004;6.770;2023-11-18T03:35:58;18.58;;;9.90;;
54177;SDS011;40085;53.004;6.770;2023-11-18T03:38:25;21.63;;;10.48;;
54177;SDS011;40085;53.004;6.770;2023-11-18T03:40:52;18.70;;;8.75;;
54177;SDS011;40085;53.004;6.770;2023-11-18T03:43:18;9.85;;;6.57;;
54177;SDS011;40085;53.004;6.770;2023-11-18T03:45:45;20.42;;;7.90;;
54177;SDS011;40085;53.004;6.770;2023-11-18T03:48:11;30.73;;;12.18;;
54177;SDS011;40085;53.004;6.770;2023-11-18T03:50:40;32.55;;;12.35;;
54177;SDS011;40085;53.004;6.770;2023-11-18T03:53:06;19.70;;;9.13;;
54177;SDS011;40085;53.004;6.770;2023-11-18T03:55:32;24.48;;;9.13;;
54177;SDS011;40085;53.004;6.770;2023-11-18T03:57:58;13.93;;;8.48;;
54177;SDS011;40085;53.004;6.770;2023-11-18T04:00:25;17.63;;;9.30;;
54177;SDS011;40085;53.004;6.770;2023-11-18T04:02:58;17.95;;;8.18;;
54177;SDS011;40085;53.004;6.770;2023-11-18T04:05:24;20.63;;;9.00;;
54177;SDS011;40085;53.004;6.770;2023-11-18T04:07:50;11.65;;;8.25;;
54177;SDS011;40085;53.004;6.770;2023-11-18T04:10:16;21.65;;;8.27;;
54177;SDS011;40085;53.004;6.770;2023-11-18T04:12:43;19.70;;;8.98;;
54177;SDS011;40085;53.004;6.770;2023-11-18T04:15:13;16.13;;;8.25;;
54177;SDS011;40085;53.004;6.770;2023-11-18T04:17:39;18.17;;;8.82;;
54177;SDS011;40085;53.004;6.770;2023-11-18T04:20:05;13.40;;;7.68;;
54177;SDS011;40085;53.004;6.770;2023-11-18T04:22:39;16.08;;;8.70;;
54177;SDS011;40085;53.004;6.770;2023-11-18T04:25:07;17.88;;;6.68;;
54177;SDS011;40085;53.004;6.770;2023-11-18T04:27:33;16.67;;;9.00;;
54177;SDS011;40085;53.004;6.770;2023-11-18T04:29:59;10.30;;;6.75;;
54177;SDS011;40085;53.004;6.770;2023-11-18T04:32:24;25.90;;;8.57;;
54177;SDS011;40085;53.004;6.770;2023-11-18T04:34:50;11.45;;;7.28;;
54177;SDS011;40085;53.004;6.770;2023-11-18T04:37:16;8.95;;;7.20;;
54177;SDS011;40085;53.004;6.770;2023-11-18T04:39:42;13.63;;;9.82;;
54177;SDS011;40085;53.004;6.770;2023-11-18T04:42:08;30.40;;;9.70;;
54177;SDS011;40085;53.004;6.770;2023-11-18T04:44:33;14.85;;;8.27;;
54177;SDS011;40085;53.004;6.770;2023-11-18T04:46:59;18.70;;;9.85;;
54177;SDS011;40085;53.004;6.770;2023-11-18T04:49:26;14.98;;;10.20;;
54177;SDS011;40085;53.004;6.770;2023-11-18T04:51:51;13.18;;;8.85;;
54177;SDS011;40085;53.004;6.770;2023-11-18T04:54:17;9.77;;;7.43;;
54177;SDS011;40085;53.004;6.770;2023-11-18T04:56:44;19.58;;;8.57;;
54177;SDS011;40085;53.004;6.770;2023-11-18T04:59:10;17.38;;;8.18;;
54177;SDS011;40085;53.004;6.770;2023-11-18T05:01:35;21.33;;;9.65;;
54177;SDS011;40085;53.004;6.770;2023-11-18T05:04:03;22.92;;;9.48;;
54177;SDS011;40085;53.004;6.770;2023-11-18T05:06:29;23.60;;;10.00;;
54177;SDS011;40085;53.004;6.770;2023-11-18T05:08:54;17.23;;;8.70;;
54177;SDS011;40085;53.004;6.770;2023-11-18T05:11:20;19.38;;;9.73;;
54177;SDS011;40085;53.004;6.770;2023-11-18T05:13:45;21.48;;;11.25;;
54177;SDS011;40085;53.004;6.770;2023-11-18T05:16:11;18.90;;;9.32;;
54177;SDS011;40085;53.004;6.770;2023-11-18T05:18:37;27.67;;;10.57;;
54177;SDS011;40085;53.004;6.770;2023-11-18T05:21:04;27.13;;;12.75;;
54177;SDS011;40085;53.004;6.770;2023-11-18T05:23:30;25.85;;;10.80;;
54177;SDS011;40085;53.004;6.770;2023-11-18T05:25:59;21.25;;;12.25;;
54177;SDS011;40085;53.004;6.770;2023-11-18T05:28:24;15.07;;;9.73;;
54177;SDS011;40085;53.004;6.770;2023-11-18T05:30:53;16.23;;;8.80;;
54177;SDS011;40085;53.004;6.770;2023-11-18T05:33:22;24.98;;;12.43;;
54177;SDS011;40085;53.004;6.770;2023-11-18T05:35:48;18.67;;;10.15;;
54177;SDS011;40085;53.004;6.770;2023-11-18T05:38:17;17.40;;;10.55;;
54177;SDS011;40085;53.004;6.770;2023-11-18T05:40:49;25.42;;;11.50;;
54177;SDS011;40085;53.004;6.770;2023-11-18T05:43:31;30.40;;;11.18;;
54177;SDS011;40085;53.004;6.770;2023-11-18T05:46:06;28.95;;;12.32;;
54177;SDS011;40085;53.004;6.770;2023-11-18T05:48:49;28.13;;;12.32;;
54177;SDS011;40085;53.004;6.770;2023-11-18T05:51:18;19.55;;;12.40;;
54177;SDS011;40085;53.004;6.770;2023-11-18T05:53:47;23.83;;;12.80;;
54177;SDS011;40085;53.004;6.770;2023-11-18T05:56:13;37.25;;;15.20;;
54177;SDS011;40085;53.004;6.770;2023-11-18T05:58:41;32.35;;;13.77;;
54177;SDS011;40085;53.004;6.770;2023-11-18T06:01:11;19.88;;;12.07;;
54177;SDS011;40085;53.004;6.770;2023-11-18T06:03:38;14.25;;;9.90;;
54177;SDS011;40085;53.004;6.770;2023-11-18T06:06:20;17.75;;;11.60;;
54177;SDS011;40085;53.004;6.770;2023-11-18T06:08:46;15.98;;;10.85;;
54177;SDS011;40085;53.004;6.770;2023-11-18T06:11:13;33.75;;;12.10;;
54177;SDS011;40085;53.004;6.770;2023-11-18T06:13:50;23.23;;;11.55;;
54177;SDS011;40085;53.004;6.770;2023-11-18T06:18:53;21.58;;;11.25;;
54177;SDS011;40085;53.004;6.770;2023-11-18T06:21:23;13.63;;;10.32;;
54177;SDS011;40085;53.004;6.770;2023-11-18T06:23:56;33.50;;;12.45;;
54177;SDS011;40085;53.004;6.770;2023-11-18T06:26:29;15.43;;;10.52;;
54177;SDS011;40085;53.004;6.770;2023-11-18T06:29:01;13.23;;;10.35;;
54177;SDS011;40085;53.004;6.770;2023-11-18T06:31:33;17.45;;;10.63;;
54177;SDS011;40085;53.004;6.770;2023-11-18T06:33:58;14.90;;;10.40;;
54177;SDS011;40085;53.004;6.770;2023-11-18T06:36:24;16.17;;;10.85;;
54177;SDS011;40085;53.004;6.770;2023-11-18T06:38:52;11.25;;;9.57;;
54177;SDS011;40085;53.004;6.770;2023-11-18T06:41:22;14.18;;;9.93;;
54177;SDS011;40085;53.004;6.770;2023-11-18T06:44:00;18.00;;;10.60;;
54177;SDS011;40085;53.004;6.770;2023-11-18T06:46:31;19.45;;;10.63;;
54177;SDS011;40085;53.004;6.770;2023-11-18T06:48:59;16.85;;;11.40;;
54177;SDS011;40085;53.004;6.770;2023-11-18T06:51:32;20.23;;;11.70;;
54177;SDS011;40085;53.004;6.770;2023-11-18T06:54:08;18.55;;;11.32;;
54177;SDS011;40085;53.004;6.770;2023-11-18T06:56:38;20.77;;;11.13;;
54177;SDS011;40085;53.004;6.770;2023-11-18T06:59:08;21.15;;;11.95;;
54177;SDS011;40085;53.004;6.770;2023-11-18T07:01:41;20.63;;;10.90;;
54177;SDS011;40085;53.004;6.770;2023-11-18T07:04:16;18.27;;;11.13;;
54177;SDS011;40085;53.004;6.770;2023-11-18T07:09:36;14.45;;;10.48;;
54177;SDS011;40085;53.004;6.770;2023-11-18T07:12:09;17.08;;;9.90;;
54177;SDS011;40085;53.004;6.770;2023-11-18T07:14:47;21.23;;;12.18;;
54177;SDS011;40085;53.004;6.770;2023-11-18T07:17:43;13.10;;;9.68;;
54177;SDS011;40085;53.004;6.770;2023-11-18T07:20:09;14.82;;;10.75;;
54177;SDS011;40085;53.004;6.770;2023-11-18T07:25:46;15.52;;;11.07;;
54177;SDS011;40085;53.004;6.770;2023-11-18T07:28:21;19.13;;;10.82;;
54177;SDS011;40085;53.004;6.770;2023-11-18T07:30:47;13.93;;;10.07;;
54177;SDS011;40085;53.004;6.770;2023-11-18T07:33:18;17.02;;;11.00;;
54177;SDS011;40085;53.004;6.770;2023-11-18T07:35:57;16.23;;;10.50;;
54177;SDS011;40085;53.004;6.770;2023-11-18T07:38:23;17.38;;;11.50;;
54177;SDS011;40085;53.004;6.770;2023-11-18T07:40:49;15.60;;;11.30;;
54177;SDS011;40085;53.004;6.770;2023-11-18T07:43:17;16.33;;;10.90;;
54177;SDS011;40085;53.004;6.770;2023-11-18T07:45:46;14.40;;;11.05;;
54177;SDS011;40085;53.004;6.770;2023-11-18T07:48:14;12.75;;;10.95;;
54177;SDS011;40085;53.004;6.770;2023-11-18T07:50:42;14.65;;;10.43;;
54177;SDS011;40085;53.004;6.770;2023-11-18T07:53:11;12.77;;;9.90;;
54177;SDS011;40085;53.004;6.770;2023-11-18T07:55:37;18.45;;;11.10;;
54177;SDS011;40085;53.004;6.770;2023-11-18T07:58:10;17.52;;;10.75;;
54177;SDS011;40085;53.004;6.770;2023-11-18T08:00:37;12.90;;;10.23;;
54177;SDS011;40085;53.004;6.770;2023-11-18T08:03:14;13.45;;;9.95;;
54177;SDS011;40085;53.004;6.770;2023-11-18T08:05:40;12.65;;;9.65;;
54177;SDS011;40085;53.004;6.770;2023-11-18T08:08:10;13.57;;;10.02;;
54177;SDS011;40085;53.004;6.770;2023-11-18T08:10:37;13.10;;;9.98;;
54177;SDS011;40085;53.004;6.770;2023-11-18T08:13:07;15.20;;;11.18;;
54177;SDS011;40085;53.004;6.770;2023-11-18T08:15:34;13.07;;;10.38;;
54177;SDS011;40085;53.004;6.770;2023-11-18T08:18:02;17.00;;;11.93;;
54177;SDS011;40085;53.004;6.770;2023-11-18T08:20:29;12.23;;;10.20;;
54177;SDS011;40085;53.004;6.770;2023-11-18T08:22:55;14.95;;;11.35;;
54177;SDS011;40085;53.004;6.770;2023-11-18T08:25:21;15.45;;;10.55;;
54177;SDS011;40085;53.004;6.770;2023-11-18T08:27:47;12.25;;;10.40;;
54177;SDS011;40085;53.004;6.770;2023-11-18T08:30:13;17.05;;;12.38;;
54177;SDS011;40085;53.004;6.770;2023-11-18T08:32:43;18.20;;;11.77;;
54177;SDS011;40085;53.004;6.770;2023-11-18T08:35:10;18.45;;;11.30;;
54177;SDS011;40085;53.004;6.770;2023-11-18T08:37:41;14.43;;;11.00;;
54177;SDS011;40085;53.004;6.770;2023-11-18T08:40:08;15.60;;;10.88;;
54177;SDS011;40085;53.004;6.770;2023-11-18T08:42:47;12.52;;;10.27;;
54177;SDS011;40085;53.004;6.770;2023-11-18T08:45:18;13.10;;;10.43;;
54177;SDS011;40085;53.004;6.770;2023-11-18T08:47:58;12.40;;;9.93;;
54177;SDS011;40085;53.004;6.770;2023-11-18T08:50:27;15.90;;;11.15;;
54177;SDS011;40085;53.004;6.770;2023-11-18T08:52:54;14.38;;;11.18;;
54177;SDS011;40085;53.004;6.770;2023-11-18T08:55:27;12.90;;;10.10;;
54177;SDS011;40085;53.004;6.770;2023-11-18T08:58:09;12.05;;;10.32;;
54177;SDS011;40085;53.004;6.770;2023-11-18T09:00:47;11.02;;;9.27;;
54177;SDS011;40085;53.004;6.770;2023-11-18T09:03:17;11.80;;;10.57;;
54177;SDS011;40085;53.004;6.770;2023-11-18T09:05:50;11.65;;;10.40;;
54177;SDS011;40085;53.004;6.770;2023-11-18T09:08:27;12.07;;;10.45;;
54177;SDS011;40085;53.004;6.770;2023-11-18T09:11:00;13.10;;;11.70;;
54177;SDS011;40085;53.004;6.770;2023-11-18T09:13:27;12.13;;;10.68;;
54177;SDS011;40085;53.004;6.770;2023-11-18T09:15:59;12.70;;;10.02;;
54177;SDS011;40085;53.004;6.770;2023-11-18T09:21:51;11.00;;;9.73;;
54177;SDS011;40085;53.004;6.770;2023-11-18T09:24:20;13.68;;;11.13;;
54177;SDS011;40085;53.004;6.770;2023-11-18T09:26:58;11.60;;;10.07;;
54177;SDS011;40085;53.004;6.770;2023-11-18T09:29:24;12.63;;;10.82;;
54177;SDS011;40085;53.004;6.770;2023-11-18T09:31:50;10.93;;;9.80;;
54177;SDS011;40085;53.004;6.770;2023-11-18T09:34:19;12.05;;;10.50;;
54177;SDS011;40085;53.004;6.770;2023-11-18T09:36:53;12.48;;;10.70;;
54177;SDS011;40085;53.004;6.770;2023-11-18T09:39:19;13.90;;;10.65;;
54177;SDS011;40085;53.004;6.770;2023-11-18T09:42:06;11.48;;;10.30;;
54177;SDS011;40085;53.004;6.770;2023-11-18T09:44:43;11.48;;;9.88;;
54177;SDS011;40085;53.004;6.770;2023-11-18T09:47:09;12.45;;;11.25;;
54177;SDS011;40085;53.004;6.770;2023-11-18T09:49:39;11.20;;;10.10;;
54177;SDS011;40085;53.004;6.770;2023-11-18T09:52:08;10.35;;;9.23;;
54177;SDS011;40085;53.004;6.770;2023-11-18T09:54:50;12.50;;;10.35;;
54177;SDS011;40085;53.004;6.770;2023-11-18T09:57:28;10.82;;;9.77;;
54177;SDS011;40085;53.004;6.770;2023-11-18T10:00:04;9.85;;;8.95;;
54177;SDS011;40085;53.004;6.770;2023-11-18T10:02:51;9.45;;;8.55;;
54177;SDS011;40085;53.004;6.770;2023-11-18T10:05:21;9.63;;;8.73;;
54177;SDS011;40085;53.004;6.770;2023-11-18T10:07:48;10.40;;;9.30;;
54177;SDS011;40085;53.004;6.770;2023-11-18T10:10:14;8.93;;;8.02;;
54177;SDS011;40085;53.004;6.770;2023-11-18T10:12:44;9.45;;;8.48;;
54177;SDS011;40085;53.004;6.770;2023-11-18T10:15:11;9.90;;;8.90;;
54177;SDS011;40085;53.004;6.770;2023-11-18T10:17:42;9.80;;;8.73;;
54177;SDS011;40085;53.004;6.770;2023-11-18T10:20:50;8.93;;;8.02;;
54177;SDS011;40085;53.004;6.770;2023-11-18T10:23:17;8.60;;;7.80;;
54177;SDS011;40085;53.004;6.770;2023-11-18T10:25:46;8.90;;;8.07;;
54177;SDS011;40085;53.004;6.770;2023-11-18T10:28:25;8.55;;;7.60;;
54177;SDS011;40085;53.004;6.770;2023-11-18T10:30:53;7.47;;;6.78;;
54177;SDS011;40085;53.004;6.770;2023-11-18T10:33:22;8.20;;;7.43;;
54177;SDS011;40085;53.004;6.770;2023-11-18T10:35:56;7.90;;;7.20;;
54177;SDS011;40085;53.004;6.770;2023-11-18T10:38:22;7.95;;;7.25;;
54177;SDS011;40085;53.004;6.770;2023-11-18T10:40:54;7.53;;;6.80;;
54177;SDS011;40085;53.004;6.770;2023-11-18T10:43:21;7.63;;;6.93;;
54177;SDS011;40085;53.004;6.770;2023-11-18T10:46:06;7.03;;;6.32;;
54177;SDS011;40085;53.004;6.770;2023-11-18T10:48:37;8.07;;;7.38;;
54177;SDS011;40085;53.004;6.770;2023-11-18T10:51:10;7.55;;;6.57;;
54177;SDS011;40085;53.004;6.770;2023-11-18T10:53:37;7.32;;;6.60;;
54177;SDS011;40085;53.004;6.770;2023-11-18T10:56:04;7.03;;;6.30;;
54177;SDS011;40085;53.004;6.770;2023-11-18T10:58:36;7.72;;;6.30;;
54177;SDS011;40085;53.004;6.770;2023-11-18T11:01:06;6.45;;;5.85;;
54177;SDS011;40085;53.004;6.770;2023-11-18T11:03:51;7.65;;;6.90;;
54177;SDS011;40085;53.004;6.770;2023-11-18T11:06:20;8.02;;;6.60;;
54177;SDS011;40085;53.004;6.770;2023-11-18T11:08:49;7.20;;;6.50;;
54177;SDS011;40085;53.004;6.770;2023-11-18T11:11:16;6.13;;;5.60;;
54177;SDS011;40085;53.004;6.770;2023-11-18T11:16:14;5.97;;;5.47;;
54177;SDS011;40085;53.004;6.770;2023-11-18T11:18:47;6.03;;;5.53;;
54177;SDS011;40085;53.004;6.770;2023-11-18T11:21:27;6.13;;;5.45;;
54177;SDS011;40085;53.004;6.770;2023-11-18T11:26:47;6.25;;;5.65;;
54177;SDS011;40085;53.004;6.770;2023-11-18T11:29:24;6.00;;;5.50;;
54177;SDS011;40085;53.004;6.770;2023-11-18T11:35:03;6.88;;;5.55;;
54177;SDS011;40085;53.004;6.770;2023-11-18T11:37:42;5.82;;;5.32;;
54177;SDS011;40085;53.004;6.770;2023-11-18T11:40:10;5.30;;;4.82;;
54177;SDS011;40085;53.004;6.770;2023-11-18T11:42:38;5.05;;;4.65;;
54177;SDS011;40085;53.004;6.770;2023-11-18T11:45:07;5.13;;;4.70;;
54177;SDS011;40085;53.004;6.770;2023-11-18T11:47:45;5.65;;;5.07;;
54177;SDS011;40085;53.004;6.770;2023-11-18T11:50:36;4.50;;;3.90;;
54177;SDS011;40085;53.004;6.770;2023-11-18T11:53:10;6.00;;;4.15;;
54177;SDS011;40085;53.004;6.770;2023-11-18T11:55:44;5.60;;;4.88;;
54177;SDS011;40085;53.004;6.770;2023-11-18T11:58:26;5.18;;;4.78;;
54177;SDS011;40085;53.004;6.770;2023-11-18T12:00:53;4.97;;;4.57;;
54177;SDS011;40085;53.004;6.770;2023-11-18T12:03:21;5.30;;;4.80;;
54177;SDS011;40085;53.004;6.770;2023-11-18T12:05:49;4.55;;;4.15;;
54177;SDS011;40085;53.004;6.770;2023-11-18T12:10:50;4.40;;;4.00;;
54177;SDS011;40085;53.004;6.770;2023-11-18T12:13:23;5.03;;;4.50;;
54177;SDS011;40085;53.004;6.770;2023-11-18T12:15:54;4.50;;;4.10;;
54177;SDS011;40085;53.004;6.770;2023-11-18T12:18:24;4.57;;;4.18;;
54177;SDS011;40085;53.004;6.770;2023-11-18T12:20:50;4.60;;;4.13;;
54177;SDS011;40085;53.004;6.770;2023-11-18T12:23:20;4.63;;;4.22;;
54177;SDS011;40085;53.004;6.770;2023-11-18T12:25:50;3.63;;;3.25;;
54177;SDS011;40085;53.004;6.770;2023-11-18T12:28:20;5.13;;;3.83;;
54177;SDS011;40085;53.004;6.770;2023-11-18T12:30:52;4.72;;;3.88;;
54177;SDS011;40085;53.004;6.770;2023-11-18T12:39:18;4.20;;;3.65;;
54177;SDS011;40085;53.004;6.770;2023-11-18T12:42:03;4.57;;;4.18;;
54177;SDS011;40085;53.004;6.770;2023-11-18T12:45:25;3.90;;;3.40;;
54177;SDS011;40085;53.004;6.770;2023-11-18T12:47:39;3.40;;;3.10;;
54177;SDS011;40085;53.004;6.770;2023-11-18T12:50:09;4.80;;;4.40;;
54177;SDS011;40085;53.004;6.770;2023-11-18T12:52:42;4.60;;;3.50;;
54177;SDS011;40085;53.004;6.770;2023-11-18T12:55:09;3.90;;;3.50;;
54177;SDS011;40085;53.004;6.770;2023-11-18T12:57:45;4.88;;;3.80;;
54177;SDS011;40085;53.004;6.770;2023-11-18T13:00:12;3.60;;;3.20;;
54177;SDS011;40085;53.004;6.770;2023-11-18T13:02:42;4.68;;;3.38;;
54177;SDS011;40085;53.004;6.770;2023-11-18T13:05:08;4.85;;;3.72;;
54177;SDS011;40085;53.004;6.770;2023-11-18T13:07:38;3.60;;;3.30;;
54177;SDS011;40085;53.004;6.770;2023-11-18T13:10:05;3.90;;;3.50;;
54177;SDS011;40085;53.004;6.770;2023-11-18T13:12:31;5.03;;;3.67;;
54177;SDS011;40085;53.004;6.770;2023-11-18T13:14:56;3.72;;;3.42;;
54177;SDS011;40085;53.004;6.770;2023-11-18T13:17:22;4.30;;;3.90;;
54177;SDS011;40085;53.004;6.770;2023-11-18T13:19:48;3.30;;;3.00;;
54177;SDS011;40085;53.004;6.770;2023-11-18T13:22:16;4.03;;;3.60;;
54177;SDS011;40085;53.004;6.770;2023-11-18T13:24:44;4.90;;;3.55;;
54177;SDS011;40085;53.004;6.770;2023-11-18T13:27:14;3.97;;;3.58;;
54177;SDS011;40085;53.004;6.770;2023-11-18T13:29:43;4.10;;;3.70;;
54177;SDS011;40085;53.004;6.770;2023-11-18T13:32:10;3.65;;;3.35;;
54177;SDS011;40085;53.004;6.770;2023-11-18T13:34:37;4.32;;;3.60;;
54177;SDS011;40085;53.004;6.770;2023-11-18T13:37:06;5.18;;;4.10;;
54177;SDS011;40085;53.004;6.770;2023-11-18T13:39:38;3.60;;;3.30;;
54177;SDS011;40085;53.004;6.770;2023-11-18T13:42:19;4.03;;;3.38;;
54177;SDS011;40085;53.004;6.770;2023-11-18T13:44:46;3.75;;;3.45;;
54177;SDS011;40085;53.004;6.770;2023-11-18T13:47:13;3.58;;;3.22;;
54177;SDS011;40085;53.004;6.770;2023-11-18T13:49:42;4.15;;;3.75;;
54177;SDS011;40085;53.004;6.770;2023-11-18T13:52:09;3.53;;;3.22;;
54177;SDS011;40085;53.004;6.770;2023-11-18T13:54:39;3.58;;;3.28;;
54177;SDS011;40085;53.004;6.770;2023-11-18T13:57:08;3.50;;;3.20;;
54177;SDS011;40085;53.004;6.770;2023-11-18T13:59:34;3.50;;;3.20;;
54177;SDS011;40085;53.004;6.770;2023-11-18T14:02:00;3.97;;;3.15;;
54177;SDS011;40085;53.004;6.770;2023-11-18T14:04:30;3.75;;;3.25;;
54177;SDS011;40085;53.004;6.770;2023-11-18T14:07:01;3.85;;;3.45;;
54177;SDS011;40085;53.004;6.770;2023-11-18T14:09:30;4.15;;;3.60;;
54177;SDS011;40085;53.004;6.770;2023-11-18T14:12:00;3.17;;;2.88;;
54177;SDS011;40085;53.004;6.770;2023-11-18T14:14:27;3.45;;;3.15;;
54177;SDS011;40085;53.004;6.770;2023-11-18T14:16:54;4.05;;;3.38;;
54177;SDS011;40085;53.004;6.770;2023-11-18T14:19:27;4.10;;;3.75;;
54177;SDS011;40085;53.004;6.770;2023-11-18T14:21:54;3.13;;;2.83;;
54177;SDS011;40085;53.004;6.770;2023-11-18T14:24:20;3.40;;;3.10;;
54177;SDS011;40085;53.004;6.770;2023-11-18T14:26:52;4.05;;;3.75;;
54177;SDS011;40085;53.004;6.770;2023-11-18T14:29:21;3.58;;;3.00;;
54177;SDS011;40085;53.004;6.770;2023-11-18T14:31:48;3.30;;;2.95;;
54177;SDS011;40085;53.004;6.770;2023-11-18T14:34:13;3.00;;;2.70;;
54177;SDS011;40085;53.004;6.770;2023-11-18T14:36:40;3.38;;;3.08;;
54177;SDS011;40085;53.004;6.770;2023-11-18T14:39:08;4.55;;;3.50;;
54177;SDS011;40085;53.004;6.770;2023-11-18T14:41:42;3.75;;;3.40;;
54177;SDS011;40085;53.004;6.770;2023-11-18T14:44:09;3.13;;;2.75;;
54177;SDS011;40085;53.004;6.770;2023-11-18T14:46:35;2.85;;;2.65;;
54177;SDS011;40085;53.004;6.770;2023-11-18T14:49:03;3.30;;;3.00;;
54177;SDS011;40085;53.004;6.770;2023-11-18T14:51:31;3.17;;;2.88;;
54177;SDS011;40085;53.004;6.770;2023-11-18T14:53:56;4.60;;;3.47;;
54177;SDS011;40085;53.004;6.770;2023-11-18T14:56:22;3.85;;;3.22;;
54177;SDS011;40085;53.004;6.770;2023-11-18T14:58:47;3.95;;;2.83;;
54177;SDS011;40085;53.004;6.770;2023-11-18T15:01:14;3.53;;;3.22;;
54177;SDS011;40085;53.004;6.770;2023-11-18T15:03:40;3.38;;;3.08;;
54177;SDS011;40085;53.004;6.770;2023-11-18T15:06:06;3.65;;;3.30;;
54177;SDS011;40085;53.004;6.770;2023-11-18T15:08:35;2.95;;;2.72;;
54177;SDS011;40085;53.004;6.770;2023-11-18T15:11:00;3.38;;;2.97;;
54177;SDS011;40085;53.004;6.770;2023-11-18T15:13:27;3.17;;;2.88;;
54177;SDS011;40085;53.004;6.770;2023-11-18T15:15:52;3.17;;;2.88;;
54177;SDS011;40085;53.004;6.770;2023-11-18T15:18:18;3.22;;;2.80;;
54177;SDS011;40085;53.004;6.770;2023-11-18T15:20:45;3.10;;;2.80;;